Time;durP1;ratioP1;P1;durP2;ratioP2;P2;SDS_P1;SDS_P2;PMS_P1;PMS_P2;Temp;Humidity;BMP_temperature;BMP_pressure;BME280_temperature;BME280_humidity;BME280_pressure;Samples;Min_cycle;Max_cycle;Signal;HPM_P1;HPM_P2
2022/10/25 00:01:20;;;;;;;17.77;7.57;;;;;;;18.30;86.38;98208.19;5302884;27;20044;-82
2022/10/25 00:03:47;;;;;;;21.77;7.18;;;;;;;17.84;87.78;98212.25;5301506;27;20116;-82
2022/10/25 00:06:14;;;;;;;16.80;7.32;;;;;;;17.32;90.54;98212.31;5301928;27;20380;-82
2022/10/25 00:08:40;;;;;;;17.98;8.00;;;;;;;17.46;90.33;98220.06;5302095;27;20053;-82
2022/10/25 00:11:17;;;;;;;19.12;7.50;;;;;;;17.53;90.31;98233.53;5302375;27;20106;-82
2022/10/25 00:13:44;;;;;;;17.85;7.87;;;;;;;18.33;86.07;98223.63;5302580;27;20057;-82
2022/10/25 00:16:15;;;;;;;16.92;8.13;;;;;;;17.73;88.23;98225.19;5302729;27;20029;-82
2022/10/25 00:18:42;;;;;;;15.65;7.22;;;;;;;18.63;84.27;98220.59;5302521;27;20054;-83
2022/10/25 00:21:09;;;;;;;18.60;7.62;;;;;;;17.81;86.85;98219.47;5303817;27;20025;-82
2022/10/25 00:23:36;;;;;;;16.87;6.68;;;;;;;18.18;84.97;98228.13;5303402;27;20367;-82
2022/10/25 00:26:04;;;;;;;17.75;7.20;;;;;;;17.41;89.52;98221.31;5303095;27;20065;-82
2022/10/25 00:28:31;;;;;;;18.30;7.22;;;;;;;18.63;83.81;98228.44;5304354;27;20029;-82
2022/10/25 00:31:03;;;;;;;16.45;7.12;;;;;;;18.60;82.81;98229.47;5304125;27;20396;-82
2022/10/25 00:33:31;;;;;;;13.82;6.55;;;;;;;20.17;75.82;98227.22;5303128;27;20057;-82
2022/10/25 00:36:05;;;;;;;16.73;6.93;;;;;;;19.67;76.68;98231.16;5303701;27;20122;-82
2022/10/25 00:38:32;;;;;;;14.20;6.82;;;;;;;20.48;72.87;98223.84;5303836;27;20052;-83
2022/10/25 00:41:00;;;;;;;13.95;6.43;;;;;;;20.39;73.53;98224.56;5304194;27;20045;-82
2022/10/25 00:43:37;;;;;;;13.68;6.05;;;;;;;21.13;69.66;98229.91;5304472;27;20065;-82
2022/10/25 00:46:19;;;;;;;14.05;6.37;;;;;;;21.05;69.29;98227.09;5304233;27;20057;-83
2022/10/25 00:48:56;;;;;;;13.60;6.20;;;;;;;20.80;69.90;98229.09;5304374;27;20061;-82
2022/10/25 00:51:48;;;;;;;12.30;5.93;;;;;;;21.25;67.27;98225.44;5304699;27;20028;-82
2022/10/25 00:54:23;;;;;;;14.05;6.40;;;;;;;21.29;66.75;98222.47;5284924;27;20068;-82
2022/10/25 00:56:51;;;;;;;12.65;5.68;;;;;;;20.76;68.54;98232.94;5304226;27;20387;-82
2022/10/25 00:59:21;;;;;;;14.48;5.90;;;;;;;21.38;66.73;98236.62;5266965;27;20052;-82
2022/10/25 01:01:48;;;;;;;11.85;5.45;;;;;;;20.60;69.00;98240.37;5285096;27;20057;-82
2022/10/25 01:04:16;;;;;;;13.00;6.22;;;;;;;20.58;68.70;98241.47;5304777;27;20053;-82
2022/10/25 01:06:49;;;;;;;13.85;5.65;;;;;;;20.67;68.27;98238.09;5284889;27;20077;-82
2022/10/25 01:09:30;;;;;;;13.13;5.93;;;;;;;19.63;73.05;98244.47;5304321;27;20031;-82
2022/10/25 01:11:57;;;;;;;13.13;5.70;;;;;;;19.47;72.92;98246.59;5304526;27;20045;-82
2022/10/25 01:14:25;;;;;;;13.70;6.05;;;;;;;19.56;72.67;98229.34;5303407;27;20070;-82
2022/10/25 01:17:10;;;;;;;13.40;6.03;;;;;;;19.21;74.20;98230.22;5303781;27;20040;-82
2022/10/25 01:20:10;;;;;;;13.90;6.30;;;;;;;18.62;76.55;98227.59;5303819;27;20061;-82
2022/10/25 01:22:55;;;;;;;14.73;6.45;;;;;;;18.71;76.61;98231.31;5284424;27;20029;-82
2022/10/25 01:25:40;;;;;;;13.60;5.72;;;;;;;18.82;76.93;98241.88;5303145;27;20065;-82
2022/10/25 01:28:28;;;;;;;15.60;7.03;;;;;;;18.62;77.70;98232.00;5303083;27;20059;-82
2022/10/25 01:31:08;;;;;;;15.80;6.82;;;;;;;18.31;79.88;98228.97;5303387;27;20067;-82
2022/10/25 01:34:00;;;;;;;16.30;6.47;;;;;;;18.39;79.31;98239.69;5303021;27;20046;-82
2022/10/25 01:36:33;;;;;;;14.27;6.28;;;;;;;18.26;79.99;98236.28;5284085;27;20065;-82
2022/10/25 01:39:09;;;;;;;15.15;6.40;;;;;;;18.05;81.28;98240.41;5303374;27;20056;-82
2022/10/25 01:42:06;;;;;;;16.17;6.68;;;;;;;17.83;82.27;98235.84;5265681;27;20399;-82
2022/10/25 01:44:47;;;;;;;14.70;6.25;;;;;;;17.99;81.10;98236.47;5302827;27;20041;-82
2022/10/25 01:47:20;;;;;;;15.95;7.20;;;;;;;18.03;81.16;98239.69;5303058;27;20062;-82
2022/10/25 01:49:57;;;;;;;15.18;6.68;;;;;;;17.85;81.67;98231.34;5282930;27;20084;-83
2022/10/25 01:52:24;;;;;;;15.63;7.15;;;;;;;17.83;81.83;98231.44;5302862;27;20049;-82
2022/10/25 01:54:51;;;;;;;14.70;6.65;;;;;;;17.70;82.52;98221.97;5302403;27;20052;-82
2022/10/25 01:57:18;;;;;;;15.85;6.40;;;;;;;17.95;82.10;98228.94;5302139;27;20062;-82
2022/10/25 02:00:09;;;;;;;16.48;6.60;;;;;;;17.92;82.02;98224.75;5302665;27;20060;-82
2022/10/25 02:02:57;;;;;;;15.65;7.30;;;;;;;17.48;83.86;98228.62;5302419;27;20021;-83
2022/10/25 02:06:01;;;;;;;18.90;6.97;;;;;;;17.66;83.19;98234.38;5302497;27;20039;-82
2022/10/25 02:08:42;;;;;;;14.85;6.78;;;;;;;18.05;81.35;98227.34;5301922;27;20079;-82
2022/10/25 02:11:23;;;;;;;15.85;6.53;;;;;;;17.85;82.02;98224.34;5302486;27;20036;-82
2022/10/25 02:14:31;;;;;;;16.08;7.05;;;;;;;18.07;81.26;98228.91;5282850;27;20063;-82
2022/10/25 02:17:04;;;;;;;14.85;6.60;;;;;;;18.23;80.38;98239.13;5282801;27;20166;-82
2022/10/25 02:19:36;;;;;;;18.70;7.30;;;;;;;18.11;80.60;98234.75;5302761;27;20057;-82
2022/10/25 02:22:07;;;;;;;14.45;6.85;;;;;;;18.64;78.17;98243.16;5303443;27;20029;-82
2022/10/25 02:24:34;;;;;;;16.17;6.80;;;;;;;18.52;78.55;98242.28;5302991;27;20053;-82
2022/10/25 02:27:03;;;;;;;15.75;6.80;;;;;;;18.76;77.38;98247.53;5283368;27;20628;-82
2022/10/25 02:29:31;;;;;;;15.18;6.68;;;;;;;18.72;76.63;98248.69;5303134;27;20391;-82
2022/10/25 02:31:58;;;;;;;14.60;6.57;;;;;;;18.69;76.91;98249.75;5302593;27;20057;-83
2022/10/25 02:34:25;;;;;;;15.35;7.18;;;;;;;18.52;78.15;98242.28;5302710;27;20032;-82
2022/10/25 02:36:52;;;;;;;14.93;6.78;;;;;;;19.07;75.36;98244.31;5302944;27;20056;-82
2022/10/25 02:39:21;;;;;;;16.12;6.62;;;;;;;19.33;73.99;98258.06;5302693;27;20057;-82
2022/10/25 02:41:53;;;;;;;16.52;6.68;;;;;;;18.90;75.45;98257.78;5284668;27;20415;-82
2022/10/25 02:44:20;;;;;;;13.80;6.05;;;;;;;18.91;75.05;98256.84;5302862;27;20049;-82
2022/10/25 02:46:47;;;;;;;15.02;6.15;;;;;;;18.83;75.51;98251.38;5303087;27;20049;-82
2022/10/25 02:49:14;;;;;;;11.65;4.97;;;;;;;19.14;74.40;98243.84;5302769;27;20071;-82
2022/10/25 02:51:41;;;;;;;14.10;5.68;;;;;;;18.40;77.60;98238.75;5302732;27;20773;-83
2022/10/25 02:54:07;;;;;;;13.52;5.93;;;;;;;18.14;78.81;98231.94;5302518;27;20123;-82
2022/10/25 02:56:34;;;;;;;16.12;5.93;;;;;;;17.79;80.64;98234.41;5303257;27;20028;-82
2022/10/25 02:59:01;;;;;;;13.02;5.05;;;;;;;17.71;80.88;98228.84;5303139;27;20053;-83
2022/10/25 03:01:28;;;;;;;12.57;5.50;;;;;;;16.91;84.73;98234.19;5302961;27;20057;-82
2022/10/25 03:03:55;;;;;;;15.25;5.35;;;;;;;17.47;82.12;98232.19;5303289;27;20475;-82
2022/10/25 03:06:22;;;;;;;13.88;5.00;;;;;;;18.34;77.59;98236.56;5302789;27;20067;-83
2022/10/25 03:08:49;;;;;;;12.43;4.78;;;;;;;19.22;73.92;98242.34;5303339;27;20669;-82
2022/10/25 03:11:16;;;;;;;12.55;5.22;;;;;;;19.04;74.55;98244.56;5303391;27;20064;-82
2022/10/25 03:13:43;;;;;;;13.70;5.80;;;;;;;18.61;76.35;98246.84;5302567;27;20407;-83
2022/10/25 03:16:11;;;;;;;12.32;4.68;;;;;;;18.76;75.93;98247.53;5303163;27;20049;-82
2022/10/25 03:18:38;;;;;;;12.40;5.15;;;;;;;18.95;74.73;98245.25;5302813;27;20058;-82
2022/10/25 03:21:05;;;;;;;11.45;4.87;;;;;;;18.82;75.45;98244.47;5302838;27;20061;-83
2022/10/25 03:23:32;;;;;;;12.10;5.10;;;;;;;19.35;73.21;98235.25;5303303;27;20065;-82
2022/10/25 03:26:00;;;;;;;11.35;4.87;;;;;;;19.87;70.62;98231.28;5303292;27;20049;-82
2022/10/25 03:28:28;;;;;;;11.60;4.97;;;;;;;19.52;71.23;98227.91;5303368;27;20034;-83
2022/10/25 03:30:55;;;;;;;12.15;5.05;;;;;;;19.84;69.97;98228.91;5303417;27;20072;-83
2022/10/25 03:33:23;;;;;;;11.12;4.95;;;;;;;19.74;69.73;98222.72;5303356;27;20032;-82
2022/10/25 03:35:52;;;;;;;11.60;5.05;;;;;;;20.20;68.14;98227.81;5302645;27;20083;-82
2022/10/25 03:38:19;;;;;;;11.32;4.78;;;;;;;20.02;68.71;98238.91;5303188;27;20073;-82
2022/10/25 03:40:46;;;;;;;11.70;5.07;;;;;;;19.62;70.42;98240.19;5302951;27;20026;-82
2022/10/25 03:43:13;;;;;;;12.48;5.00;;;;;;;19.63;70.61;98233.19;5303142;27;20021;-82
2022/10/25 03:45:42;;;;;;;11.18;5.07;;;;;;;19.77;69.57;98232.94;5303016;27;20037;-82
2022/10/25 03:48:08;;;;;;;11.50;5.03;;;;;;;19.30;71.86;98232.13;5303147;27;20057;-82
2022/10/25 03:50:35;;;;;;;13.30;5.53;;;;;;;19.26;71.85;98222.88;5304063;27;20057;-82
2022/10/25 03:53:03;;;;;;;11.55;4.90;;;;;;;20.36;67.97;98221.34;5304361;27;20064;-83
2022/10/25 03:55:32;;;;;;;12.15;4.80;;;;;;;20.72;65.83;98221.03;5303629;27;20053;-83
2022/10/25 03:57:59;;;;;;;11.38;4.45;;;;;;;20.30;67.33;98225.28;5304119;27;20068;-82
2022/10/25 04:00:26;;;;;;;12.60;4.32;;;;;;;19.88;68.88;98235.59;5284821;27;20061;-82
2022/10/25 04:02:57;;;;;;;11.90;4.72;;;;;;;19.17;71.33;98248.87;5304235;27;20053;-82
2022/10/25 04:05:30;;;;;;;13.00;5.20;;;;;;;19.40;71.11;98257.63;5304186;27;20422;-82
2022/10/25 04:07:57;;;;;;;10.73;4.35;;;;;;;18.95;73.01;98255.69;5303679;27;20058;-82
2022/10/25 04:10:24;;;;;;;10.93;4.62;;;;;;;18.94;73.13;98256.66;5303284;27;20071;-83
2022/10/25 04:12:52;;;;;;;12.40;4.93;;;;;;;18.47;75.21;98258.25;5303119;27;20383;-82
2022/10/25 04:15:22;;;;;;;12.43;4.65;;;;;;;18.42;75.92;98262.16;5303280;27;20064;-82
2022/10/25 04:17:52;;;;;;;14.13;5.15;;;;;;;18.27;76.38;98256.22;5303612;27;20057;-83
2022/10/25 04:20:20;;;;;;;13.20;4.90;;;;;;;18.20;76.51;98253.22;5303653;27;20062;-82
2022/10/25 04:22:54;;;;;;;10.98;4.40;;;;;;;18.57;75.28;98260.22;5303598;27;20045;-82
2022/10/25 04:25:23;;;;;;;11.02;4.22;;;;;;;18.56;75.05;98259.38;5303891;27;20026;-82
2022/10/25 04:27:50;;;;;;;9.65;3.75;;;;;;;18.84;74.07;98255.66;5303527;27;20634;-82
2022/10/25 04:30:17;;;;;;;9.48;3.50;;;;;;;19.13;72.68;98263.94;5303590;27;20072;-83
2022/10/25 04:32:43;;;;;;;9.65;3.55;;;;;;;19.14;72.77;98259.53;5303481;27;20049;-82
2022/10/25 04:35:11;;;;;;;9.93;3.67;;;;;;;18.92;73.56;98260.28;5284909;27;20102;-82
2022/10/25 04:37:38;;;;;;;9.68;3.92;;;;;;;19.03;73.23;98265.56;5302961;27;20684;-83
2022/10/25 04:40:06;;;;;;;9.02;3.30;;;;;;;19.03;73.39;98263.81;5303300;27;20385;-82
2022/10/25 04:42:33;;;;;;;10.65;3.47;;;;;;;18.98;73.45;98267.69;5303870;27;20031;-82
2022/10/25 04:45:00;;;;;;;9.18;3.08;;;;;;;19.04;72.74;98265.47;5302944;27;20045;-83
2022/10/25 04:47:32;;;;;;;8.32;3.30;;;;;;;18.94;73.55;98267.09;5283996;27;20099;-82
2022/10/25 04:49:59;;;;;;;10.05;3.00;;;;;;;18.96;73.29;98265.22;5302641;27;20057;-82
2022/10/25 04:52:28;;;;;;;7.07;2.78;;;;;;;18.91;73.72;98264.69;5302321;27;20053;-83
2022/10/25 04:54:55;;;;;;;8.98;3.45;;;;;;;19.26;71.84;98262.09;5283566;27;20049;-82
2022/10/25 04:57:22;;;;;;;7.65;2.90;;;;;;;18.79;73.67;98273.44;5302855;27;20061;-82
2022/10/25 04:59:49;;;;;;;7.37;2.80;;;;;;;19.07;72.19;98274.88;5283737;27;20057;-83
2022/10/25 05:02:16;;;;;;;7.35;2.85;;;;;;;19.16;71.77;98273.38;5303400;27;20410;-82
2022/10/25 05:04:43;;;;;;;7.55;2.87;;;;;;;19.65;70.18;98283.63;5303085;27;20407;-82
2022/10/25 05:07:10;;;;;;;6.25;2.40;;;;;;;19.68;69.51;98274.72;5302791;27;20439;-83
2022/10/25 05:09:37;;;;;;;5.22;1.90;;;;;;;19.21;70.68;98266.84;5303076;27;20065;-82
2022/10/25 05:12:06;;;;;;;4.18;1.70;;;;;;;19.43;70.48;98265.22;5302789;27;20117;-83
2022/10/25 05:14:33;;;;;;;4.68;1.70;;;;;;;19.70;69.27;98263.19;5302988;27;20068;-82
2022/10/25 05:17:00;;;;;;;5.85;1.52;;;;;;;19.19;71.10;98260.88;5302837;27;20061;-82
2022/10/25 05:19:26;;;;;;;9.43;2.05;;;;;;;18.98;72.22;98255.47;5283182;27;20076;-82
2022/10/25 05:21:53;;;;;;;6.30;2.10;;;;;;;19.03;72.38;98260.34;5303778;27;20059;-82
2022/10/25 05:24:23;;;;;;;6.97;2.20;;;;;;;18.81;72.86;98263.69;5303713;27;20045;-82
2022/10/25 05:26:50;;;;;;;5.72;2.25;;;;;;;19.19;71.76;98271.34;5303836;27;20784;-83
2022/10/25 05:29:16;;;;;;;9.90;2.87;;;;;;;19.45;70.18;98274.62;5304321;27;20032;-82
2022/10/25 05:31:43;;;;;;;12.35;3.90;;;;;;;20.03;67.75;98262.34;5304611;27;20335;-82
2022/10/25 05:34:10;;;;;;;9.13;2.33;;;;;;;19.53;69.97;98277.50;5303759;27;20045;-83
2022/10/25 05:36:37;;;;;;;7.07;1.90;;;;;;;20.08;67.83;98281.16;5303854;27;20025;-83
2022/10/25 05:39:04;;;;;;;15.25;3.10;;;;;;;19.98;67.96;98280.19;5303690;27;20061;-83
2022/10/25 05:41:31;;;;;;;8.43;3.03;;;;;;;20.28;66.88;98284.84;5303377;27;20049;-83
2022/10/25 05:44:03;;;;;;;6.55;2.70;;;;;;;20.27;66.95;98290.22;5303971;27;20041;-82
2022/10/25 05:46:30;;;;;;;7.60;2.22;;;;;;;19.84;68.70;98304.84;5303653;27;20057;-82
2022/10/25 05:48:58;;;;;;;6.37;2.30;;;;;;;20.45;66.92;98302.72;5303725;27;20062;-83
2022/10/25 05:51:29;;;;;;;5.57;2.20;;;;;;;20.56;66.03;98314.16;5304785;27;20020;-83
2022/10/25 05:54:08;;;;;;;5.00;1.98;;;;;;;20.46;66.38;98314.88;5286192;27;20082;-83
2022/10/25 05:56:36;;;;;;;10.52;2.20;;;;;;;20.68;65.24;98326.28;5287181;27;20029;-82
2022/10/25 05:59:08;;;;;;;6.43;2.00;;;;;;;21.04;63.97;98327.75;5308840;27;20069;-82
2022/10/25 06:01:40;;;;;;;5.35;1.85;;;;;;;20.58;65.28;98328.81;5313226;27;20061;-83
2022/10/25 06:04:08;;;;;;;10.23;3.20;;;;;;;21.06;63.52;98331.94;5293611;27;20025;-83
2022/10/25 06:06:36;;;;;;;8.70;2.30;;;;;;;21.14;63.55;98333.91;5309300;27;20036;-83
2022/10/25 06:09:03;;;;;;;5.68;2.00;;;;;;;20.58;65.44;98344.53;5312741;27;20036;-82
2022/10/25 06:11:31;;;;;;;4.90;1.92;;;;;;;20.34;67.01;98342.03;5311995;27;20022;-82
2022/10/25 06:13:58;;;;;;;6.28;2.05;;;;;;;20.01;68.75;98350.69;5293418;27;20040;-81
2022/10/25 06:16:25;;;;;;;5.80;1.90;;;;;;;20.01;69.07;98350.69;5310616;27;20025;-82
2022/10/25 06:18:53;;;;;;;5.12;1.95;;;;;;;19.91;69.64;98350.56;5290571;27;20025;-82
2022/10/25 06:21:22;;;;;;;3.75;1.70;;;;;;;19.80;70.55;98352.31;5303056;27;20061;-79
2022/10/25 06:23:50;;;;;;;5.65;1.80;;;;;;;19.89;70.23;98355.09;5303487;27;20060;-80
2022/10/25 06:26:19;;;;;;;5.70;1.75;;;;;;;20.01;69.70;98349.88;5279966;27;20065;-81
2022/10/25 06:28:47;;;;;;;4.65;1.80;;;;;;;19.81;70.44;98346.13;5299667;27;20065;-81
2022/10/25 06:31:16;;;;;;;5.37;1.62;;;;;;;19.76;70.71;98340.41;5299121;27;20053;-81
2022/10/25 06:33:43;;;;;;;4.00;1.37;;;;;;;19.93;69.23;98343.41;5279604;27;20097;-82
2022/10/25 06:36:15;;;;;;;3.40;1.35;;;;;;;20.30;67.93;98343.19;5298804;27;20076;-81
2022/10/25 06:38:44;;;;;;;6.05;1.85;;;;;;;20.26;68.10;98341.78;5299488;27;20077;-82
2022/10/25 06:41:15;;;;;;;2.62;1.30;;;;;;;20.52;67.00;98337.13;5299516;27;20049;-82
2022/10/25 06:43:42;;;;;;;3.55;1.27;;;;;;;21.02;64.40;98340.97;5299216;27;20056;-82
2022/10/25 06:46:13;;;;;;;3.95;1.17;;;;;;;21.04;64.38;98344.31;5299392;27;20475;-82
2022/10/25 06:48:40;;;;;;;4.00;1.20;;;;;;;20.75;64.68;98336.19;5281376;27;20076;-86
2022/10/25 06:51:10;;;;;;;2.92;1.08;;;;;;;21.25;63.11;98336.47;5297226;27;20065;-85
2022/10/25 06:53:37;;;;;;;2.78;1.00;;;;;;;21.58;61.32;98337.31;5280791;27;20060;-84
2022/10/25 06:56:06;;;;;;;3.17;1.00;;;;;;;21.05;62.64;98340.75;5299309;27;20158;-83
2022/10/25 06:58:39;;;;;;;4.07;1.27;;;;;;;21.32;62.52;98340.31;5299089;27;20068;-83
2022/10/25 07:01:08;;;;;;;2.55;1.02;;;;;;;21.00;64.19;98340.28;5299228;27;20067;-86
2022/10/25 07:03:35;;;;;;;3.78;1.20;;;;;;;21.34;63.46;98348.88;5280332;27;20060;-86
2022/10/25 07:06:08;;;;;;;4.95;1.33;;;;;;;21.93;60.47;98344.91;5299048;27;20544;-86
2022/10/25 07:08:37;;;;;;;5.28;1.30;;;;;;;21.50;62.36;98351.09;5279829;27;20456;-86
2022/10/25 07:11:04;;;;;;;5.35;1.15;;;;;;;21.72;61.42;98357.19;5280240;27;20064;-86
2022/10/25 07:13:32;;;;;;;5.05;1.10;;;;;;;21.45;61.97;98363.75;5299231;27;20049;-87
2022/10/25 07:16:03;;;;;;;3.20;0.95;;;;;;;22.05;59.21;98370.13;5280087;27;20126;-86
2022/10/25 07:18:31;;;;;;;2.65;1.10;;;;;;;21.95;59.03;98371.88;5300551;27;20363;-85
2022/10/25 07:20:59;;;;;;;2.20;0.82;;;;;;;21.90;59.18;98371.41;5303213;27;20050;-86
2022/10/25 07:23:27;;;;;;;4.97;1.10;;;;;;;21.46;60.68;98364.59;5301266;27;20049;-85
2022/10/25 07:25:54;;;;;;;3.87;1.10;;;;;;;21.45;61.32;98366.38;5303395;27;20068;-85
2022/10/25 07:28:21;;;;;;;2.22;0.90;;;;;;;21.44;62.22;98358.62;5304610;27;20030;-85
2022/10/25 07:30:48;;;;;;;4.37;1.40;;;;;;;21.85;60.60;98363.09;5299378;27;20060;-86
2022/10/25 07:33:17;;;;;;;1.80;0.82;;;;;;;22.01;60.22;98365.25;5298894;27;20045;-87
2022/10/25 07:35:45;;;;;;;3.30;1.20;;;;;;;22.50;58.52;98372.44;5299209;27;20076;-86
2022/10/25 07:38:32;;;;;;;3.60;1.10;;;;;;;23.12;56.84;98379.28;5297773;27;20080;-86
2022/10/25 07:40:59;;;;;;;4.05;1.27;;;;;;;23.48;56.42;98376.94;5298782;27;20068;-86
2022/10/25 07:43:27;;;;;;;6.60;1.25;;;;;;;23.83;55.15;98384.34;5298622;27;20053;-85
2022/10/25 07:45:54;;;;;;;3.47;0.90;;;;;;;23.65;55.72;98384.19;5299217;27;20072;-86
2022/10/25 07:48:22;;;;;;;5.47;1.20;;;;;;;23.68;56.03;98378.66;5299140;27;20075;-87
2022/10/25 07:50:49;;;;;;;5.60;1.25;;;;;;;23.76;55.78;98375.31;5299106;27;20090;-87
2022/10/25 07:53:16;;;;;;;6.60;1.20;;;;;;;23.82;56.46;98380.88;5298331;27;20049;-87
2022/10/25 07:55:50;;;;;;;6.20;1.45;;;;;;;23.86;56.91;98390.16;5279298;27;20067;-87
2022/10/25 07:58:17;;;;;;;5.75;1.48;;;;;;;24.11;56.15;98390.50;5298988;27;20065;-87
2022/10/25 08:00:44;;;;;;;4.00;1.27;;;;;;;23.65;57.57;98397.38;5298686;27;20064;-87
2022/10/25 08:03:15;;;;;;;3.53;1.30;;;;;;;23.18;58.38;98401.59;5298959;27;20395;-87
2022/10/25 08:05:43;;;;;;;6.65;1.37;;;;;;;23.80;57.08;98398.59;5298420;27;20060;-86
2022/10/25 08:08:11;;;;;;;2.42;1.30;;;;;;;23.90;56.42;98407.31;5279032;27;20053;-86
2022/10/25 08:10:38;;;;;;;8.57;2.00;;;;;;;23.99;56.23;98404.81;5299183;27;20071;-87
2022/10/25 08:13:05;;;;;;;5.87;1.55;;;;;;;24.17;54.84;98403.13;5299092;27;20053;-87
2022/10/25 08:15:32;;;;;;;7.75;1.60;;;;;;;24.22;54.83;98409.63;5298581;27;20064;-87
2022/10/25 08:18:00;;;;;;;4.20;1.60;;;;;;;24.43;54.22;98406.00;5299152;27;20057;-87
2022/10/25 08:20:27;;;;;;;5.62;1.60;;;;;;;24.67;53.46;98403.69;5299058;27;20049;-87
2022/10/25 08:23:15;;;;;;;3.70;1.20;;;;;;;24.41;53.43;98403.50;5298943;27;20064;-87
2022/10/25 08:25:42;;;;;;;6.10;1.50;;;;;;;24.56;51.97;98405.66;5298823;27;20416;-87
2022/10/25 08:28:09;;;;;;;4.18;1.50;;;;;;;23.26;56.96;98414.91;5299030;27;20071;-86
2022/10/25 08:30:36;;;;;;;2.85;1.10;;;;;;;23.74;54.63;98412.34;5298726;27;20095;-87
2022/10/25 08:33:02;;;;;;;3.58;1.65;;;;;;;22.97;54.89;98406.97;5298768;27;20046;-86
2022/10/25 08:35:33;;;;;;;2.85;1.05;;;;;;;21.94;56.93;98407.81;5298418;27;20400;-86
2022/10/25 08:38:01;;;;;;;5.53;1.25;;;;;;;21.98;56.95;98410.16;5299852;27;20057;-86
2022/10/25 08:40:34;;;;;;;8.25;1.40;;;;;;;21.52;57.96;98406.09;5280544;27;20053;-86
2022/10/25 08:43:39;;;;;;;4.10;1.30;;;;;;;21.61;57.04;98397.47;5299441;27;20045;-86
2022/10/25 08:46:21;;;;;;;4.25;1.52;;;;;;;21.50;57.29;98397.53;5280641;27;20076;-85
2022/10/25 08:49:01;;;;;;;7.37;2.30;;;;;;;21.31;57.52;98391.13;5280425;27;20505;-86
2022/10/25 08:51:33;;;;;;;4.72;1.50;;;;;;;21.79;56.41;98408.22;5299644;27;20518;-86
2022/10/25 08:54:03;;;;;;;4.57;1.65;;;;;;;21.56;57.39;98415.37;5280472;27;20049;-86
2022/10/25 08:56:31;;;;;;;5.32;1.48;;;;;;;21.39;57.99;98413.31;5300478;27;20114;-85
2022/10/25 08:59:02;;;;;;;7.50;1.92;;;;;;;21.31;59.61;98411.31;5299928;27;20057;-86
2022/10/25 09:01:46;;;;;;;6.40;1.95;;;;;;;22.67;55.43;98419.16;5299642;27;20044;-86
2022/10/25 09:04:14;;;;;;;5.75;1.67;;;;;;;22.36;55.84;98428.84;5299392;27;20045;-86
2022/10/25 09:06:54;;;;;;;5.25;1.60;;;;;;;21.43;59.05;98433.09;5280271;27;20069;-86
2022/10/25 09:09:52;;;;;;;6.25;1.70;;;;;;;21.72;58.30;98423.69;5300089;27;20060;-86
2022/10/25 09:12:24;;;;;;;;;;;;;;;22.57;55.41;98438.50;5280586;27;20324;-86
2022/10/25 09:15:01;;;;;;;4.55;1.50;;;;;;;22.48;56.11;98440.94;5299537;27;19967;-86
2022/10/25 09:17:34;;;;;;;;;;;;;;;22.09;57.46;98434.62;5299937;27;20057;-86
2022/10/25 09:20:09;;;;;;;2.67;1.30;;;;;;;22.45;56.25;98443.84;5280532;27;19973;-86
2022/10/25 09:22:42;;;;;;;3.22;1.40;;;;;;;22.17;56.89;98447.94;5280457;27;20049;-86
2022/10/25 09:25:21;;;;;;;2.97;1.20;;;;;;;22.30;55.55;98444.28;5299362;27;20045;-86
2022/10/25 09:27:53;;;;;;;4.20;1.40;;;;;;;22.91;54.49;98455.69;5299825;27;20062;-86
2022/10/25 09:30:20;;;;;;;3.17;1.20;;;;;;;22.99;52.79;98455.88;5299770;27;20079;-86
2022/10/25 09:32:51;;;;;;;5.45;1.50;;;;;;;23.51;51.37;98447.81;5299378;27;20052;-86
2022/10/25 09:35:27;;;;;;;2.22;1.08;;;;;;;23.24;51.79;98456.34;5299580;27;20045;-86
2022/10/25 09:37:58;;;;;;;3.17;1.20;;;;;;;23.00;52.97;98459.31;5299488;27;20118;-87
2022/10/25 09:40:33;;;;;;;3.25;1.40;;;;;;;23.01;52.71;98464.44;5299343;27;20076;-86
2022/10/25 09:43:03;;;;;;;2.97;1.40;;;;;;;22.69;52.37;98464.56;5278684;27;20355;-86
2022/10/25 09:45:54;;;;;;;4.18;1.23;;;;;;;22.79;53.38;98457.56;5297556;27;20423;-86
2022/10/25 09:48:28;;;;;;;4.33;1.40;;;;;;;22.17;56.27;98463.72;5295775;27;20122;-86
2022/10/25 09:51:24;;;;;;;4.43;1.30;;;;;;;23.20;52.49;98462.84;5298274;27;20407;-86
2022/10/25 09:53:51;;;;;;;5.05;1.50;;;;;;;23.05;53.95;98471.09;5277561;27;20057;-86
2022/10/25 09:56:18;;;;;;;6.25;1.35;;;;;;;24.15;51.38;98476.25;5279058;27;20347;-86
2022/10/25 09:58:46;;;;;;;3.28;1.40;;;;;;;24.85;49.03;98490.81;5298579;27;20057;-86
2022/10/25 10:01:16;;;;;;;4.45;1.48;;;;;;;25.20;46.72;98494.59;5298706;27;20068;-86
2022/10/25 10:03:43;;;;;;;3.92;1.20;;;;;;;24.62;48.31;98486.88;5299838;27;20123;-86
2022/10/25 10:06:21;;;;;;;2.03;1.23;;;;;;;24.83;47.38;98491.94;5299303;27;20053;-86
2022/10/25 10:08:55;;;;;;;6.28;1.80;;;;;;;24.44;48.04;98487.59;5299316;27;20076;-86
2022/10/25 10:11:23;;;;;;;5.05;1.17;;;;;;;23.73;50.46;98488.88;5280259;27;20075;-86
2022/10/25 10:13:54;;;;;;;2.50;1.20;;;;;;;23.00;51.90;98491.75;5299338;27;20494;-85
2022/10/25 10:16:36;;;;;;;3.70;1.20;;;;;;;21.88;55.32;98478.41;5280267;27;20049;-86
2022/10/25 10:19:18;;;;;;;1.98;1.00;;;;;;;22.85;53.74;98484.31;5263013;27;20065;-86
2022/10/25 10:21:47;;;;;;;3.72;1.12;;;;;;;23.42;50.23;98477.59;5279702;27;20094;-86
2022/10/25 10:24:21;;;;;;;3.03;1.10;;;;;;;23.22;50.81;98480.16;5299879;27;20160;-85
2022/10/25 10:26:54;;;;;;;3.50;1.23;;;;;;;22.46;53.08;98487.56;5280023;27;20064;-85
2022/10/25 10:29:23;;;;;;;3.50;1.20;;;;;;;23.14;51.73;98487.06;5302111;27;20415;-83
2022/10/25 10:31:56;;;;;;;3.60;1.15;;;;;;;23.96;50.22;98479.75;5287152;27;20025;-83
2022/10/25 10:34:27;;;;;;;3.58;1.30;;;;;;;23.69;50.33;98476.94;5308083;27;20411;-84
2022/10/25 10:37:00;;;;;;;2.47;1.27;;;;;;;22.39;54.22;98477.69;5282262;27;20049;-84
2022/10/25 10:39:28;;;;;;;1.87;1.00;;;;;;;23.85;50.99;98474.59;5299695;27;20106;-84
2022/10/25 10:42:13;;;;;;;2.62;1.12;;;;;;;23.63;50.73;98465.19;5299912;27;20417;-84
2022/10/25 10:45:07;;;;;;;3.35;1.10;;;;;;;23.36;52.17;98463.16;5303475;27;20064;-85
2022/10/25 10:47:49;;;;;;;5.07;1.50;;;;;;;23.80;50.31;98456.56;5290992;27;20042;-84
2022/10/25 10:50:20;;;;;;;2.87;1.20;;;;;;;23.48;50.97;98448.06;5299270;27;20407;-84
2022/10/25 10:52:52;;;;;;;3.30;1.30;;;;;;;22.95;52.65;98453.63;5299636;27;20056;-84
2022/10/25 10:55:28;;;;;;;2.45;1.02;;;;;;;23.22;51.87;98451.22;5299484;27;20060;-84
2022/10/25 10:57:59;;;;;;;2.95;1.10;;;;;;;23.18;52.23;98457.72;5299181;27;20106;-85
2022/10/25 11:00:28;;;;;;;2.70;1.12;;;;;;;23.03;53.27;98461.69;5299208;27;20312;-85
2022/10/25 11:02:55;;;;;;;2.65;1.10;;;;;;;23.47;51.74;98456.94;5299070;27;20092;-84
2022/10/25 11:05:32;;;;;;;2.97;1.30;;;;;;;24.08;50.28;98454.06;5280687;27;20076;-85
2022/10/25 11:08:22;;;;;;;2.62;1.20;;;;;;;24.27;49.15;98459.31;5299212;27;20056;-85
2022/10/25 11:10:49;;;;;;;4.22;1.30;;;;;;;24.34;49.06;98463.06;5299171;27;20449;-85
2022/10/25 11:13:20;;;;;;;4.85;1.00;;;;;;;24.75;47.49;98464.47;5299453;27;20061;-85
2022/10/25 11:16:24;;;;;;;4.00;1.08;;;;;;;23.52;50.15;98466.09;5279986;27;20112;-85
2022/10/25 11:19:02;;;;;;;3.15;0.90;;;;;;;24.94;46.58;98473.28;5299048;27;20056;-85
2022/10/25 11:21:41;;;;;;;3.53;1.08;;;;;;;26.04;44.17;98459.94;5299644;27;20061;-85
2022/10/25 11:24:22;;;;;;;3.47;1.02;;;;;;;24.35;47.89;98464.75;5279825;27;20065;-85
2022/10/25 11:26:58;;;;;;;2.75;1.02;;;;;;;25.35;44.32;98456.97;5299786;27;20080;-85
2022/10/25 11:29:50;;;;;;;2.03;1.03;;;;;;;25.91;42.72;98457.69;5299396;27;20045;-85
2022/10/25 11:32:41;;;;;;;3.42;0.85;;;;;;;26.09;42.67;98465.62;5298915;27;20368;-85
2022/10/25 11:35:42;;;;;;;1.83;0.90;;;;;;;25.85;43.06;98468.91;5299125;27;20121;-85
2022/10/25 11:38:31;;;;;;;1.23;0.62;;;;;;;26.36;41.68;98467.28;5280665;27;20669;-84
2022/10/25 11:41:28;;;;;;;2.03;1.10;;;;;;;24.96;42.62;98469.50;5301165;27;20044;-85
2022/10/25 11:44:31;;;;;;;2.83;1.05;;;;;;;25.52;42.73;98470.34;5286655;27;20079;-85
2022/10/25 11:47:01;;;;;;;3.03;1.20;;;;;;;26.26;41.44;98467.38;5301483;27;20029;-85
2022/10/25 11:49:46;;;;;;;2.67;1.10;;;;;;;26.22;41.07;98466.88;5299621;27;20052;-86
2022/10/25 11:52:27;;;;;;;3.03;1.12;;;;;;;25.70;42.23;98467.75;5298963;27;20061;-87
2022/10/25 11:55:15;;;;;;;3.40;0.88;;;;;;;25.41;41.48;98470.56;5279723;27;20066;-86